Terminal Aerodrome Forecast
Issued by NWS Twin Cities, MN

Home | Current Version | Previous Version | Graphics & Text | Print | Product List | Glossary On
Versions: 1 2 3 4 5 6 7 8 9 10 11 12 13 14 15 16 17 18
602
FTUS43 KMPX 270808 AAA
TAFSTC
TAF AMD
KSTC 270808Z 2708/2806 VRB03KT P6SM -SHRA VCTS SCT060CB OVC100
     FM271300 VRB03KT P6SM VCSH OVC070
     FM271800 VRB03KT 5SM -TSRA BR SCT025 OVC040CB
     FM272100 03006KT P6SM OVC035=

USA.gov is the U.S. government's official web portal to all federal, state and local government web resources and services.